Time;durP1;ratioP1;P1;durP2;ratioP2;P2;SDS_P1;SDS_P2;PMS_P1;PMS_P2;Temp;Humidity;BMP_temperature;BMP_pressure;BME280_temperature;BME280_humidity;BME280_pressure;Samples;Min_cycle;Max_cycle;Signal;HPM_P1;HPM_P2
2021/11/20 00:01:36;;;;;;;11.73;6.72;;;5.40;99.90;;;;;;5070336;28;20232;-83
2021/11/20 00:04:03;;;;;;;11.73;7.40;;;5.50;99.90;;;;;;5072564;28;20256;-81
2021/11/20 00:06:34;;;;;;;14.15;7.28;;;5.50;99.90;;;;;;5072238;28;20214;-81
2021/11/20 00:09:01;;;;;;;12.88;7.03;;;5.50;99.90;;;;;;5072438;28;20207;-81
2021/11/20 00:11:30;;;;;;;12.05;7.40;;;5.50;99.90;;;;;;5071135;28;20169;-82
2021/11/20 00:13:57;;;;;;;10.98;6.95;;;5.50;99.90;;;;;;5071159;28;20222;-82
2021/11/20 00:16:24;;;;;;;12.48;7.00;;;5.50;99.90;;;;;;5072311;28;20165;-81
2021/11/20 00:18:52;;;;;;;12.27;6.95;;;5.50;99.90;;;;;;5072376;28;20149;-81
2021/11/20 00:21:26;;;;;;;11.05;7.07;;;5.50;99.90;;;;;;5071069;28;20637;-81
2021/11/20 00:23:55;;;;;;;13.27;6.63;;;5.50;99.90;;;;;;5072178;28;20196;-82
2021/11/20 00:26:28;;;;;;;13.63;7.00;;;5.40;99.90;;;;;;5071878;28;20199;-81
2021/11/20 00:31:33;;;;;;;13.50;7.20;;;5.40;99.90;;;;;;5072147;28;20153;-80
2021/11/20 00:33:59;;;;;;;13.40;6.60;;;5.30;99.90;;;;;;5072051;28;20188;-80
2021/11/20 00:36:25;;;;;;;10.88;6.57;;;5.20;99.90;;;;;;5070546;28;20187;-80
2021/11/20 00:38:53;;;;;;;15.02;6.90;;;5.20;99.90;;;;;;5070735;28;20180;-82
2021/11/20 00:41:26;;;;;;;11.70;6.82;;;5.20;99.90;;;;;;5071775;28;20195;-81
2021/11/20 00:43:54;;;;;;;13.43;6.22;;;5.20;99.90;;;;;;5072015;28;20164;-82
2021/11/20 00:46:23;;;;;;;9.32;6.45;;;5.20;99.90;;;;;;5071563;28;20196;-82
2021/11/20 00:48:50;;;;;;;12.68;6.13;;;5.10;99.90;;;;;;5071779;28;20180;-82
2021/11/20 00:51:18;;;;;;;10.23;6.28;;;5.10;99.90;;;;;;5071582;28;20192;-82
2021/11/20 00:53:44;;;;;;;11.00;6.82;;;5.00;99.90;;;;;;5071734;28;20229;-82
2021/11/20 00:56:12;;;;;;;13.10;5.95;;;5.00;99.90;;;;;;5071490;28;20216;-81
2021/11/20 00:58:39;;;;;;;10.55;6.18;;;5.00;99.90;;;;;;5071619;28;20157;-82
2021/11/20 01:01:07;;;;;;;10.82;6.22;;;5.00;99.90;;;;;;5071579;28;20248;-82
2021/11/20 01:03:33;;;;;;;12.77;6.85;;;4.90;99.90;;;;;;5070362;28;20172;-81
2021/11/20 01:06:00;;;;;;;7.95;4.82;;;4.90;99.90;;;;;;5071424;28;20246;-82
2021/11/20 01:08:32;;;;;;;10.38;5.60;;;5.00;99.90;;;;;;5071537;28;20161;-82
2021/11/20 01:11:13;;;;;;;9.73;5.32;;;4.90;99.90;;;;;;5070038;28;20192;-82
2021/11/20 01:13:39;;;;;;;9.05;4.70;;;4.90;99.90;;;;;;5068788;28;20176;-82
2021/11/20 01:16:09;;;;;;;11.27;5.05;;;4.90;99.90;;;;;;5069909;28;20180;-81
2021/11/20 01:18:35;;;;;;;13.48;4.65;;;4.80;99.90;;;;;;5071335;28;20551;-82
2021/11/20 01:21:02;;;;;;;6.07;4.18;;;4.80;99.90;;;;;;5069909;28;20194;-82
2021/11/20 01:23:30;;;;;;;9.20;4.95;;;4.80;99.90;;;;;;5069988;28;20207;-83
2021/11/20 01:25:56;;;;;;;5.22;3.30;;;4.80;99.90;;;;;;5069697;28;20243;-83
2021/11/20 01:28:25;;;;;;;6.10;3.58;;;4.90;99.90;;;;;;5069782;28;20169;-81
2021/11/20 01:30:52;;;;;;;4.53;3.03;;;5.10;99.90;;;;;;5071026;28;20218;-82
2021/11/20 01:33:20;;;;;;;9.35;3.97;;;5.10;99.90;;;;;;5069772;28;20180;-82
2021/11/20 01:35:46;;;;;;;8.82;3.60;;;5.00;99.90;;;;;;5071050;28;20160;-81
2021/11/20 01:38:12;;;;;;;7.40;3.50;;;5.00;99.90;;;;;;5070838;28;20149;-82
2021/11/20 01:40:41;;;;;;;5.28;2.92;;;5.00;99.90;;;;;;5069598;28;20568;-79
2021/11/20 01:43:09;;;;;;;6.90;3.42;;;4.90;99.90;;;;;;5070780;28;20163;-79
2021/11/20 01:45:48;;;;;;;5.00;3.13;;;4.90;99.90;;;;;;5070774;28;20160;-78
2021/11/20 01:48:51;;;;;;;4.53;3.05;;;4.90;99.90;;;;;;5059931;28;20266;-79
2021/11/20 01:51:26;;;;;;;4.30;2.75;;;4.90;99.90;;;;;;5062745;28;20195;-79
2021/11/20 01:54:17;;;;;;;5.13;2.63;;;4.90;99.90;;;;;;5070558;28;20179;-78
2021/11/20 01:57:02;;;;;;;3.70;2.03;;;5.00;99.90;;;;;;5069778;28;20228;-79
2021/11/20 01:59:56;;;;;;;5.38;2.58;;;5.10;99.90;;;;;;5070537;28;20224;-79
2021/11/20 02:02:37;;;;;;;5.70;2.95;;;5.10;99.90;;;;;;5069063;28;20192;-80
2021/11/20 02:05:11;;;;;;;3.35;2.20;;;5.00;99.90;;;;;;5070353;28;20165;-80
2021/11/20 02:07:48;;;;;;;4.20;2.50;;;5.00;99.90;;;;;;5070328;28;20185;-80
2021/11/20 02:10:27;;;;;;;4.68;2.50;;;5.00;99.90;;;;;;5068927;28;20172;-80
2021/11/20 02:12:57;;;;;;;5.25;2.35;;;4.90;99.90;;;;;;5068962;28;20191;-80
2021/11/20 02:15:40;;;;;;;6.65;3.00;;;4.90;99.90;;;;;;5070271;28;20567;-80
2021/11/20 02:18:08;;;;;;;3.35;2.53;;;4.90;99.90;;;;;;5070124;28;20160;-80
2021/11/20 02:20:49;;;;;;;9.18;2.67;;;4.80;99.90;;;;;;5068720;28;20216;-80
2021/11/20 02:23:16;;;;;;;3.65;2.70;;;4.80;99.90;;;;;;5069931;28;20157;-80
2021/11/20 02:25:42;;;;;;;8.80;3.03;;;4.80;99.90;;;;;;5069621;28;20203;-80
2021/11/20 02:28:09;;;;;;;6.72;2.72;;;4.70;99.90;;;;;;5069964;28;20169;-80
2021/11/20 02:30:40;;;;;;;6.47;2.13;;;4.70;99.90;;;;;;5069725;28;20275;-80
2021/11/20 02:33:13;;;;;;;2.53;2.25;;;4.60;99.90;;;;;;5069951;28;20161;-80
2021/11/20 02:35:42;;;;;;;3.20;2.22;;;4.60;99.90;;;;;;5068617;28;20172;-80
2021/11/20 02:38:15;;;;;;;5.15;3.25;;;4.50;99.90;;;;;;5069862;28;20236;-80
2021/11/20 02:40:43;;;;;;;3.88;3.08;;;4.40;99.90;;;;;;5069763;28;20185;-80
2021/11/20 02:43:10;;;;;;;6.38;3.25;;;4.30;99.90;;;;;;5069762;28;20152;-80
2021/11/20 02:45:39;;;;;;;8.55;3.83;;;4.20;99.90;;;;;;5068298;28;20192;-81
2021/11/20 02:48:06;;;;;;;10.52;3.40;;;4.20;99.90;;;;;;5060327;28;20177;-82
2021/11/20 02:50:40;;;;;;;6.15;3.22;;;4.20;99.90;;;;;;5053274;28;20196;-81
2021/11/20 02:53:09;;;;;;;7.72;3.78;;;4.20;99.90;;;;;;5049565;28;20154;-81
2021/11/20 02:55:40;;;;;;;4.93;3.33;;;4.10;99.90;;;;;;5049220;28;20178;-80
2021/11/20 02:58:06;;;;;;;7.25;4.07;;;4.10;99.90;;;;;;5049378;28;20145;-81
2021/11/20 03:00:32;;;;;;;12.45;4.32;;;4.10;99.90;;;;;;5049393;28;20223;-82
2021/11/20 03:02:58;;;;;;;9.88;3.75;;;4.00;99.90;;;;;;5048099;28;20180;-80
2021/11/20 03:05:24;;;;;;;5.85;3.65;;;4.00;99.90;;;;;;5049380;28;20193;-80
2021/11/20 03:07:50;;;;;;;7.03;3.65;;;4.00;99.90;;;;;;5047939;28;20181;-80
2021/11/20 03:10:16;;;;;;;6.03;3.47;;;4.00;99.90;;;;;;5049234;28;20235;-80
2021/11/20 03:12:42;;;;;;;8.13;3.70;;;3.90;99.90;;;;;;5049323;28;20173;-82
2021/11/20 03:15:10;;;;;;;6.32;3.83;;;3.80;99.90;;;;;;5049246;28;20157;-81
2021/11/20 03:17:36;;;;;;;8.10;3.67;;;3.80;99.90;;;;;;5049120;28;20184;-81
2021/11/20 03:20:05;;;;;;;6.72;4.30;;;3.70;99.90;;;;;;5047793;28;20177;-83
2021/11/20 03:22:39;;;;;;;6.78;4.13;;;3.60;99.90;;;;;;5047731;28;20665;-82
2021/11/20 03:25:06;;;;;;;8.35;4.00;;;3.60;99.90;;;;;;5049077;28;20169;-81
2021/11/20 03:27:34;;;;;;;8.32;4.63;;;3.70;99.90;;;;;;5049097;28;20185;-81
2021/11/20 03:29:59;;;;;;;7.93;4.00;;;3.70;99.90;;;;;;5047832;28;20200;-81
2021/11/20 03:32:25;;;;;;;8.00;4.03;;;3.60;99.90;;;;;;5047678;28;20264;-82
2021/11/20 03:34:53;;;;;;;6.70;4.25;;;3.70;99.90;;;;;;5048896;28;20181;-81
2021/11/20 03:37:22;;;;;;;4.78;3.67;;;3.60;99.90;;;;;;5048337;28;20303;-80
2021/11/20 03:39:49;;;;;;;7.45;4.38;;;3.60;99.90;;;;;;5047560;28;20177;-80
2021/11/20 03:42:15;;;;;;;4.15;3.50;;;3.50;99.90;;;;;;5063319;28;20232;-79
2021/11/20 03:44:41;;;;;;;7.80;3.75;;;3.50;99.90;;;;;;5068948;28;20157;-79
2021/11/20 03:47:07;;;;;;;6.88;3.63;;;3.40;99.90;;;;;;5067403;28;20228;-79
2021/11/20 03:49:34;;;;;;;6.10;3.60;;;3.40;99.90;;;;;;5067522;28;20176;-79
2021/11/20 03:52:00;;;;;;;4.95;3.08;;;3.50;99.90;;;;;;5067452;28;20197;-78
2021/11/20 03:54:26;;;;;;;6.85;2.90;;;3.60;99.90;;;;;;5067456;28;20184;-78
2021/11/20 03:56:53;;;;;;;6.35;3.30;;;3.60;99.90;;;;;;5068312;28;20239;-78
2021/11/20 03:59:20;;;;;;;12.82;3.10;;;3.50;99.90;;;;;;5068804;28;20183;-80
2021/11/20 04:01:46;;;;;;;5.15;2.60;;;3.50;99.90;;;;;;5067193;28;20192;-81
2021/11/20 04:04:12;;;;;;;4.40;3.10;;;3.30;99.90;;;;;;5068714;28;20165;-81
2021/11/20 04:06:38;;;;;;;7.10;3.40;;;3.30;99.90;;;;;;5068431;28;20246;-80
2021/11/20 04:09:06;;;;;;;4.97;3.50;;;3.30;99.90;;;;;;5068702;28;20180;-80
2021/11/20 04:11:36;;;;;;;3.78;2.85;;;3.30;99.90;;;;;;5066918;28;20189;-80
2021/11/20 04:14:03;;;;;;;5.57;3.30;;;3.30;99.90;;;;;;5068636;28;20154;-80
2021/11/20 04:16:29;;;;;;;5.88;3.00;;;3.40;99.90;;;;;;5068541;28;20161;-80
2021/11/20 04:18:57;;;;;;;6.35;3.65;;;3.40;99.90;;;;;;5067249;28;20276;-80
2021/11/20 04:21:23;;;;;;;4.78;2.92;;;3.40;99.90;;;;;;5068583;28;20223;-79
2021/11/20 04:23:50;;;;;;;4.72;3.47;;;3.40;99.90;;;;;;5067149;28;20169;-79
2021/11/20 04:26:20;;;;;;;5.28;3.15;;;3.40;99.90;;;;;;5068419;28;20193;-79
2021/11/20 04:28:46;;;;;;;5.18;3.15;;;3.30;99.90;;;;;;5067225;28;20188;-79
2021/11/20 04:31:12;;;;;;;5.05;3.25;;;3.30;99.90;;;;;;5068225;28;20263;-79
2021/11/20 04:33:39;;;;;;;6.85;3.17;;;3.30;99.90;;;;;;5067145;28;20172;-80
2021/11/20 04:36:07;;;;;;;5.70;3.30;;;3.30;99.90;;;;;;5067168;28;20188;-80
2021/11/20 04:38:35;;;;;;;11.60;3.78;;;3.30;99.90;;;;;;5067080;28;20179;-80
2021/11/20 04:41:02;;;;;;;7.15;3.45;;;3.30;99.90;;;;;;5067082;28;20201;-80
2021/11/20 04:43:29;;;;;;;8.00;3.00;;;3.40;99.90;;;;;;5068345;28;20172;-80
2021/11/20 04:45:55;;;;;;;4.60;2.92;;;3.30;99.90;;;;;;5066960;28;20207;-79
2021/11/20 04:48:22;;;;;;;8.88;3.30;;;3.20;99.90;;;;;;5069746;28;20169;-79
2021/11/20 04:50:50;;;;;;;6.32;2.88;;;3.30;99.90;;;;;;5070408;28;20199;-79
2021/11/20 04:53:17;;;;;;;4.30;3.50;;;3.30;99.90;;;;;;5070665;28;20248;-80
2021/11/20 04:55:44;;;;;;;5.63;3.30;;;3.30;99.90;;;;;;5071681;28;20630;-80
2021/11/20 04:58:10;;;;;;;3.40;2.53;;;3.20;99.90;;;;;;5070529;28;20177;-80
2021/11/20 05:00:43;;;;;;;4.97;3.28;;;3.30;99.90;;;;;;5070205;28;20169;-80
2021/11/20 05:03:10;;;;;;;6.53;3.05;;;3.30;99.90;;;;;;5070303;28;20264;-80
2021/11/20 05:05:39;;;;;;;4.75;3.40;;;3.20;99.90;;;;;;5070446;28;20177;-79
2021/11/20 05:08:05;;;;;;;5.20;3.58;;;3.20;99.90;;;;;;5070076;28;20177;-79
2021/11/20 05:10:33;;;;;;;12.90;5.15;;;3.30;99.90;;;;;;5071298;28;20179;-80
2021/11/20 05:12:59;;;;;;;6.13;4.07;;;3.30;99.90;;;;;;5070193;28;20304;-80
2021/11/20 05:15:25;;;;;;;7.93;4.30;;;3.20;99.90;;;;;;5071457;28;20153;-80
2021/11/20 05:17:51;;;;;;;6.65;5.90;;;3.20;99.90;;;;;;5071452;28;20157;-80
2021/11/20 05:20:18;;;;;;;8.30;3.88;;;3.20;99.90;;;;;;5069947;28;20692;-79
2021/11/20 05:22:44;;;;;;;6.97;3.28;;;3.20;99.90;;;;;;5069823;28;20200;-80
2021/11/20 05:25:13;;;;;;;5.15;2.95;;;3.20;99.90;;;;;;5071135;28;20220;-80
2021/11/20 05:27:40;;;;;;;5.50;3.42;;;3.30;99.90;;;;;;5071184;28;20189;-80
2021/11/20 05:30:16;;;;;;;4.40;3.53;;;3.30;99.90;;;;;;5071150;28;20172;-78
2021/11/20 05:32:44;;;;;;;6.00;3.75;;;3.20;99.90;;;;;;5070985;28;20674;-78
2021/11/20 05:35:12;;;;;;;6.18;3.10;;;3.20;99.90;;;;;;5070953;28;20159;-78
2021/11/20 05:37:38;;;;;;;4.72;3.58;;;3.10;99.90;;;;;;5070787;28;20168;-78
2021/11/20 05:40:07;;;;;;;8.07;3.45;;;3.10;99.90;;;;;;5069638;28;20186;-78
2021/11/20 05:42:32;;;;;;;6.85;3.67;;;3.20;99.90;;;;;;5070820;28;20726;-78
2021/11/20 05:44:59;;;;;;;4.65;3.13;;;3.10;99.90;;;;;;5070660;28;20196;-78
2021/11/20 05:47:25;;;;;;;8.57;4.65;;;3.10;99.90;;;;;;5069500;28;20226;-77
2021/11/20 05:49:51;;;;;;;7.75;4.90;;;3.10;99.90;;;;;;5070819;28;20157;-77
2021/11/20 05:52:18;;;;;;;6.72;4.28;;;3.10;99.90;;;;;;5070632;28;20219;-77
2021/11/20 05:54:44;;;;;;;10.02;4.95;;;3.20;99.90;;;;;;5070683;28;20180;-77
2021/11/20 05:57:11;;;;;;;14.57;6.32;;;3.10;99.90;;;;;;5070388;28;20231;-77
2021/11/20 05:59:38;;;;;;;11.52;6.38;;;3.10;99.90;;;;;;5069677;28;20157;-77
2021/11/20 06:02:04;;;;;;;7.15;5.07;;;3.20;99.90;;;;;;5070474;28;20202;-77
2021/11/20 06:04:31;;;;;;;6.78;4.43;;;3.20;99.90;;;;;;5069216;28;20259;-77
2021/11/20 06:06:58;;;;;;;6.50;4.22;;;3.10;99.90;;;;;;5070211;28;20191;-77
2021/11/20 06:09:24;;;;;;;6.72;3.85;;;3.10;99.90;;;;;;5070496;28;20220;-77
2021/11/20 06:11:50;;;;;;;10.43;5.68;;;3.00;99.90;;;;;;5069098;28;20200;-77
2021/11/20 06:14:17;;;;;;;7.85;5.00;;;3.10;99.90;;;;;;5068987;28;20164;-77
2021/11/20 06:16:44;;;;;;;5.65;4.35;;;3.10;99.90;;;;;;5070197;28;20195;-82
2021/11/20 06:19:12;;;;;;;8.30;4.07;;;3.10;99.90;;;;;;5068869;28;20176;-80
2021/11/20 06:21:39;;;;;;;7.95;4.07;;;3.20;99.90;;;;;;5070039;28;20189;-80
2021/11/20 06:24:06;;;;;;;7.88;4.43;;;3.20;99.90;;;;;;5070115;28;20160;-80
2021/11/20 06:26:34;;;;;;;7.80;3.83;;;3.10;99.90;;;;;;5069938;28;20230;-81
2021/11/20 06:29:01;;;;;;;9.20;4.63;;;3.00;99.90;;;;;;5068762;28;20168;-80
2021/11/20 06:31:27;;;;;;;9.90;4.47;;;3.00;99.90;;;;;;5068705;28;20250;-80
2021/11/20 06:33:54;;;;;;;9.75;4.88;;;3.00;99.90;;;;;;5069702;28;20161;-85
2021/11/20 06:36:22;;;;;;;7.75;4.03;;;3.00;99.90;;;;;;5068471;28;20173;-84
2021/11/20 06:38:48;;;;;;;10.90;4.90;;;3.10;99.90;;;;;;5069904;28;20245;-86
2021/11/20 06:41:14;;;;;;;12.43;4.85;;;3.10;99.90;;;;;;5069788;28;20250;-82
2021/11/20 06:43:40;;;;;;;8.73;5.15;;;3.10;99.90;;;;;;5068130;28;20173;-83
2021/11/20 06:46:12;;;;;;;7.85;4.75;;;3.10;99.90;;;;;;5069703;28;20251;-84
2021/11/20 06:48:39;;;;;;;7.72;4.55;;;3.10;99.90;;;;;;5068372;28;20168;-83
2021/11/20 06:51:07;;;;;;;13.35;5.25;;;3.20;99.90;;;;;;5068217;28;20199;-85
2021/11/20 06:53:34;;;;;;;10.23;5.28;;;3.20;99.90;;;;;;5068291;28;20169;-84
2021/11/20 06:56:01;;;;;;;11.55;4.82;;;3.30;99.90;;;;;;5069267;28;20235;-84
2021/11/20 07:01:07;;;;;;;11.82;4.90;;;3.30;99.90;;;;;;5069693;28;20256;-78
2021/11/20 07:03:39;;;;;;;11.75;5.50;;;3.40;99.90;;;;;;5068149;28;20230;-81
2021/11/20 07:06:21;;;;;;;7.82;4.82;;;3.50;99.90;;;;;;5067876;28;20208;-84
2021/11/20 07:08:49;;;;;;;11.85;6.15;;;3.50;99.90;;;;;;5069493;28;20156;-84
2021/11/20 07:11:16;;;;;;;11.50;6.38;;;3.60;99.90;;;;;;5069316;28;20185;-83
2021/11/20 07:13:42;;;;;;;8.90;5.10;;;3.70;99.90;;;;;;5068038;28;20645;-84
2021/11/20 07:16:12;;;;;;;13.60;5.70;;;3.80;99.90;;;;;;5067883;28;20198;-83
2021/11/20 07:18:39;;;;;;;10.30;6.00;;;3.90;99.90;;;;;;5069095;28;20161;-83
2021/11/20 07:21:06;;;;;;;11.55;5.90;;;4.00;99.90;;;;;;5069219;28;20188;-83
2021/11/20 07:23:32;;;;;;;9.45;4.95;;;4.00;99.90;;;;;;5069170;28;20290;-83
2021/11/20 07:25:59;;;;;;;12.55;5.63;;;4.10;99.90;;;;;;5069033;28;20244;-84
2021/11/20 07:28:26;;;;;;;7.05;5.22;;;4.20;99.90;;;;;;5067994;28;20173;-83
2021/11/20 07:30:52;;;;;;;14.35;6.18;;;4.30;99.90;;;;;;5068834;28;20244;-85
2021/11/20 07:33:19;;;;;;;8.20;5.28;;;4.50;99.90;;;;;;5067637;28;20179;-83
2021/11/20 07:35:55;;;;;;;9.38;5.72;;;4.60;99.90;;;;;;5068266;28;20161;-83
2021/11/20 07:38:41;;;;;;;8.43;5.80;;;4.70;99.90;;;;;;5068164;28;20163;-82
2021/11/20 07:41:09;;;;;;;12.05;5.78;;;4.90;99.90;;;;;;5068720;28;20192;-83
2021/11/20 07:43:35;;;;;;;10.27;5.65;;;5.10;99.90;;;;;;5068831;28;20187;-82
2021/11/20 07:46:05;;;;;;;13.15;7.07;;;5.30;99.90;;;;;;5067411;28;20226;-83
2021/11/20 07:48:31;;;;;;;10.15;5.90;;;5.50;99.90;;;;;;5067509;28;20191;-84
2021/11/20 07:50:58;;;;;;;15.48;6.55;;;5.70;99.90;;;;;;5067391;28;20199;-84
2021/11/20 07:53:24;;;;;;;12.68;6.22;;;5.90;99.90;;;;;;5067422;28;20191;-84
2021/11/20 07:55:51;;;;;;;11.30;6.95;;;6.20;99.90;;;;;;5067365;28;20175;-85
2021/11/20 07:58:18;;;;;;;11.57;6.85;;;6.60;99.90;;;;;;5067292;28;20173;-85
2021/11/20 08:00:45;;;;;;;12.98;6.85;;;7.00;99.90;;;;;;5067306;28;20200;-85
2021/11/20 08:03:12;;;;;;;12.57;7.70;;;7.40;99.90;;;;;;5068543;28;20157;-84
2021/11/20 08:05:39;;;;;;;11.68;6.25;;;7.90;99.90;;;;;;5068467;28;20160;-81
2021/11/20 08:08:06;;;;;;;13.60;7.53;;;9.10;99.90;;;;;;5068522;28;20183;-84
2021/11/20 08:10:33;;;;;;;7.28;5.35;;;10.30;99.90;;;;;;5067038;28;20164;-82
2021/11/20 08:12:59;;;;;;;9.85;5.63;;;11.50;99.90;;;;;;5068449;28;20153;-85
2021/11/20 08:15:27;;;;;;;11.27;6.05;;;11.80;99.90;;;;;;5068519;28;20153;-85
2021/11/20 08:17:53;;;;;;;8.10;5.38;;;11.60;99.90;;;;;;5068098;28;20167;-85
2021/11/20 08:20:22;;;;;;;9.85;5.50;;;12.10;99.90;;;;;;5068514;28;20165;-84
2021/11/20 08:22:48;;;;;;;12.40;6.28;;;13.00;99.90;;;;;;5070578;28;20167;-85
2021/11/20 08:25:21;;;;;;;8.80;6.00;;;13.50;99.90;;;;;;5070932;28;20172;-85
2021/11/20 08:27:48;;;;;;;8.38;5.63;;;14.20;99.90;;;;;;5070806;28;20291;-85
2021/11/20 08:30:17;;;;;;;14.05;5.88;;;14.00;99.90;;;;;;5070918;28;20168;-84
2021/11/20 08:32:46;;;;;;;9.25;5.47;;;14.20;99.90;;;;;;5072096;28;20189;-84
2021/11/20 08:35:12;;;;;;;11.25;6.35;;;14.90;99.90;;;;;;5070470;28;20200;-84
2021/11/20 08:37:38;;;;;;;9.05;6.45;;;15.50;99.90;;;;;;5071824;28;20221;-84
2021/11/20 08:40:06;;;;;;;12.45;6.57;;;15.80;99.90;;;;;;5069219;28;20187;-83
2021/11/20 08:42:35;;;;;;;8.85;6.70;;;16.10;99.90;;;;;;5070921;28;20248;-81
2021/11/20 08:45:04;;;;;;;9.85;6.80;;;16.40;99.90;;;;;;5070716;28;20169;-80
2021/11/20 08:47:30;;;;;;;11.15;7.50;;;16.80;99.90;;;;;;5070380;28;20218;-82
2021/11/20 08:49:56;;;;;;;11.77;7.55;;;15.80;99.90;;;;;;5070546;28;20169;-82
2021/11/20 08:52:22;;;;;;;11.82;6.70;;;15.30;99.90;;;;;;5070255;28;20246;-82
2021/11/20 08:54:48;;;;;;;9.82;6.82;;;15.70;99.90;;;;;;5070382;28;20235;-82
2021/11/20 08:57:14;;;;;;;10.18;7.32;;;15.90;99.90;;;;;;5071504;28;20220;-82
2021/11/20 08:59:41;;;;;;;11.50;7.68;;;14.50;99.90;;;;;;5070188;28;20263;-81
2021/11/20 09:02:30;;;;;;;11.50;7.75;;;13.50;99.90;;;;;;5069936;28;20212;-81
2021/11/20 09:05:29;;;;;;;11.23;7.57;;;13.50;99.90;;;;;;5071437;28;20157;-82
2021/11/20 09:08:23;;;;;;;12.60;7.55;;;13.70;99.90;;;;;;5071385;28;20214;-81
2021/11/20 09:11:05;;;;;;;13.50;8.45;;;14.50;99.90;;;;;;5070549;28;20168;-82
2021/11/20 09:13:40;;;;;;;10.50;7.38;;;15.30;99.90;;;;;;5071413;28;20183;-81
2021/11/20 09:16:13;;;;;;;12.43;8.20;;;14.10;99.90;;;;;;5071075;28;20248;-81
2021/11/20 09:18:40;;;;;;;12.48;8.00;;;13.20;99.90;;;;;;5071207;28;20163;-81
2021/11/20 09:21:09;;;;;;;14.48;8.48;;;13.10;99.90;;;;;;5071112;28;20195;-81
2021/11/20 09:23:37;;;;;;;11.13;7.22;;;14.10;99.90;;;;;;5069671;28;20211;-81
2021/11/20 09:26:04;;;;;;;12.50;7.25;;;15.00;99.90;;;;;;5071015;28;20189;-81
2021/11/20 09:28:31;;;;;;;11.30;8.30;;;14.80;99.90;;;;;;5071071;28;20168;-80
2021/11/20 09:31:00;;;;;;;11.40;8.07;;;15.00;99.90;;;;;;5069474;28;20169;-81
2021/11/20 09:33:27;;;;;;;13.73;8.50;;;14.10;99.90;;;;;;5069517;28;20149;-81
2021/11/20 09:35:53;;;;;;;10.98;7.25;;;14.90;99.90;;;;;;5069185;28;20648;-81
2021/11/20 09:38:21;;;;;;;11.95;6.70;;;14.70;99.90;;;;;;5069377;28;20244;-81
2021/11/20 09:40:56;;;;;;;9.38;6.53;;;15.50;99.90;;;;;;5070966;28;20161;-81
2021/11/20 09:43:29;;;;;;;10.48;7.40;;;16.40;99.90;;;;;;5070594;28;20233;-80
2021/11/20 09:46:23;;;;;;;10.07;6.88;;;16.30;99.90;;;;;;5069444;28;20173;-81
2021/11/20 09:48:59;;;;;;;9.40;6.40;;;15.20;99.90;;;;;;5070522;28;20188;-81
2021/11/20 09:51:33;;;;;;;9.68;6.75;;;14.90;99.90;;;;;;5069188;28;20199;-81
2021/11/20 09:54:05;;;;;;;11.95;7.82;;;14.90;99.90;;;;;;5070705;28;20171;-80
2021/11/20 09:56:42;;;;;;;10.15;7.15;;;14.20;99.90;;;;;;5070820;28;20212;-80
2021/11/20 09:59:18;;;;;;;11.27;7.55;;;13.90;99.90;;;;;;5062011;28;20199;-81
2021/11/20 10:02:12;;;;;;;10.75;7.20;;;15.20;99.90;;;;;;5061799;28;20191;-81
2021/11/20 10:05:19;;;;;;;9.60;6.55;;;15.80;99.90;;;;;;5086191;28;20180;-80
2021/11/20 10:08:02;;;;;;;10.82;7.15;;;15.70;99.90;;;;;;5067881;28;20248;-80
2021/11/20 10:10:48;;;;;;;9.85;6.85;;;14.80;99.90;;;;;;5050262;28;20221;-81
2021/11/20 10:13:23;;;;;;;9.63;6.95;;;14.60;99.90;;;;;;5048643;28;20204;-81
2021/11/20 10:16:12;;;;;;;11.27;7.05;;;16.10;99.90;;;;;;5048845;28;20173;-80
2021/11/20 10:18:55;;;;;;;10.75;7.03;;;16.20;99.90;;;;;;5050045;28;20165;-81
2021/11/20 10:21:40;;;;;;;10.95;7.53;;;16.10;99.90;;;;;;5048501;28;20193;-81
2021/11/20 10:24:18;;;;;;;10.52;7.30;;;15.20;99.90;;;;;;5048548;28;20184;-81
2021/11/20 10:26:49;;;;;;;13.13;7.30;;;14.50;99.90;;;;;;5051629;28;20189;-81
2021/11/20 10:29:21;;;;;;;9.80;6.95;;;14.70;99.90;;;;;;5089831;28;20187;-81
2021/11/20 10:32:02;;;;;;;11.82;7.20;;;15.90;99.90;;;;;;5088318;28;20532;-80
2021/11/20 10:34:53;;;;;;;11.45;6.82;;;17.10;99.90;;;;;;5088269;28;20182;-80
2021/11/20 10:37:34;;;;;;;10.32;6.63;;;15.00;99.90;;;;;;5088292;28;20167;-81
2021/11/20 10:40:07;;;;;;;12.85;7.93;;;15.50;99.90;;;;;;5085821;28;20200;-81
2021/11/20 10:42:39;;;;;;;9.85;6.72;;;16.30;99.90;;;;;;5082592;28;20290;-81
2021/11/20 10:45:32;;;;;;;9.25;6.53;;;16.90;99.90;;;;;;5087787;28;20629;-81
2021/11/20 10:48:05;;;;;;;12.63;7.63;;;16.10;99.90;;;;;;5081291;28;20236;-81
2021/11/20 10:50:42;;;;;;;10.85;6.95;;;16.20;99.90;;;;;;5059071;28;20176;-80
2021/11/20 10:53:26;;;;;;;8.77;6.68;;;16.50;99.90;;;;;;5055586;28;20209;-81
2021/11/20 10:56:25;;;;;;;9.57;6.47;;;15.80;99.90;;;;;;5058152;28;20215;-80
2021/11/20 10:59:13;;;;;;;9.90;6.50;;;16.30;99.90;;;;;;5060031;28;20172;-80
2021/11/20 11:01:42;;;;;;;9.75;6.22;;;18.00;99.90;;;;;;5057964;28;20215;-81
2021/11/20 11:04:55;;;;;;;10.82;6.47;;;17.60;99.90;;;;;;5057189;28;20164;-81
2021/11/20 11:07:25;;;;;;;15.80;7.10;;;18.10;99.90;;;;;;5049607;28;20298;-81
2021/11/20 11:10:20;;;;;;;9.77;6.60;;;18.40;99.90;;;;;;5056474;28;20211;-81
2021/11/20 11:13:09;;;;;;;9.65;6.63;;;17.10;99.90;;;;;;5059073;28;20209;-81
2021/11/20 11:15:56;;;;;;;9.55;7.05;;;18.00;99.90;;;;;;5060638;28;20160;-78
2021/11/20 11:19:01;;;;;;;8.98;5.88;;;18.90;99.90;;;;;;5067746;28;20183;-78
2021/11/20 11:21:45;;;;;;;8.02;6.18;;;17.50;99.90;;;;;;5010529;28;20231;-79
2021/11/20 11:24:22;;;;;;;10.27;7.45;;;18.40;99.90;;;;;;5027152;28;20201;-79
2021/11/20 11:27:12;;;;;;;10.52;7.00;;;17.80;99.90;;;;;;5020331;28;20209;-79
2021/11/20 11:29:47;;;;;;;12.38;6.90;;;16.80;99.90;;;;;;5010101;28;20177;-77
2021/11/20 11:32:14;;;;;;;10.20;6.95;;;15.80;99.90;;;;;;5010275;28;20193;-79
2021/11/20 11:34:51;;;;;;;8.93;6.53;;;15.90;99.90;;;;;;5010506;28;20180;-78
2021/11/20 11:37:45;;;;;;;9.00;6.78;;;16.50;99.90;;;;;;5027041;28;20162;-79
2021/11/20 11:40:19;;;;;;;9.80;6.43;;;16.40;99.90;;;;;;5010399;28;20730;-80
2021/11/20 11:43:09;;;;;;;8.55;5.78;;;15.90;99.90;;;;;;5026428;28;20212;-79
2021/11/20 11:45:47;;;;;;;8.05;6.38;;;16.00;99.90;;;;;;4996697;28;20197;-79
2021/11/20 11:48:27;;;;;;;8.27;6.03;;;15.80;99.90;;;;;;5010337;28;20189;-80
2021/11/20 11:51:25;;;;;;;9.65;6.30;;;15.90;99.90;;;;;;5026334;28;20161;-80
2021/11/20 11:54:20;;;;;;;8.48;6.22;;;16.10;99.90;;;;;;5000043;28;20182;-80
2021/11/20 11:56:54;;;;;;;10.57;6.63;;;15.00;99.90;;;;;;5052745;28;20265;-80
2021/11/20 11:59:42;;;;;;;10.82;6.57;;;14.50;99.90;;;;;;5062149;28;20195;-79
2021/11/20 12:02:17;;;;;;;9.43;6.38;;;14.20;99.90;;;;;;5061049;28;20251;-79
2021/11/20 12:05:01;;;;;;;11.32;6.75;;;14.00;99.90;;;;;;5061708;28;20192;-79
2021/11/20 12:07:44;;;;;;;13.77;6.85;;;14.20;99.90;;;;;;5061968;28;20189;-80
2021/11/20 12:10:15;;;;;;;10.38;6.47;;;14.90;99.90;;;;;;5062673;28;20192;-80
2021/11/20 12:13:10;;;;;;;9.13;6.40;;;15.40;99.90;;;;;;5070992;28;20244;-80
2021/11/20 12:15:44;;;;;;;8.18;6.43;;;15.30;99.90;;;;;;5063577;28;20204;-81
2021/11/20 12:18:22;;;;;;;8.82;6.28;;;14.20;99.90;;;;;;5072344;28;20218;-80
2021/11/20 12:21:03;;;;;;;7.75;5.57;;;13.20;99.90;;;;;;5072032;28;20157;-79
2021/11/20 12:23:48;;;;;;;10.77;5.82;;;12.10;99.90;;;;;;5070789;28;20168;-81
2021/11/20 12:26:41;;;;;;;9.93;5.90;;;11.90;99.90;;;;;;5066525;28;20204;-77
2021/11/20 12:29:20;;;;;;;7.88;6.10;;;11.70;99.90;;;;;;5051578;28;20196;-80
2021/11/20 12:32:36;;;;;;;8.80;6.05;;;11.60;99.90;;;;;;5050812;28;20265;-83
2021/11/20 12:35:24;;;;;;;10.05;5.63;;;11.70;99.90;;;;;;5050824;28;20532;-82
2021/11/20 12:37:53;;;;;;;13.52;6.15;;;11.80;99.90;;;;;;5052116;28;20557;-79
2021/11/20 12:40:52;;;;;;;9.68;6.03;;;11.70;99.90;;;;;;5051865;28;20527;-77
2021/11/20 12:43:30;;;;;;;9.32;6.45;;;11.70;99.90;;;;;;5050579;28;20185;-78
2021/11/20 12:46:11;;;;;;;7.97;6.40;;;11.50;99.90;;;;;;5050260;28;20187;-79
2021/11/20 12:49:11;;;;;;;7.75;5.10;;;11.40;99.90;;;;;;5050171;28;20165;-75
2021/11/20 12:51:49;;;;;;;8.30;5.00;;;11.70;99.90;;;;;;5050070;28;20201;-76
2021/11/20 12:54:43;;;;;;;8.60;5.93;;;11.80;99.90;;;;;;5051418;28;20195;-76
2021/11/20 12:57:18;;;;;;;8.55;6.18;;;11.80;99.90;;;;;;5061597;28;20244;-75
2021/11/20 12:59:49;;;;;;;8.35;5.82;;;11.60;99.90;;;;;;5069948;28;20180;-76
2021/11/20 13:02:34;;;;;;;9.00;5.93;;;11.40;99.90;;;;;;5071171;28;20193;-76
2021/11/20 13:05:20;;;;;;;9.90;6.35;;;11.50;99.90;;;;;;5061238;28;20182;-75
2021/11/20 13:07:50;;;;;;;11.40;5.47;;;11.60;99.90;;;;;;5063704;28;20181;-76
2021/11/20 13:10:32;;;;;;;7.68;5.35;;;11.60;99.90;;;;;;5060564;28;20184;-76
2021/11/20 13:13:36;;;;;;;8.07;5.25;;;11.80;99.90;;;;;;5060288;28;20211;-77
2021/11/20 13:16:08;;;;;;;10.45;5.90;;;11.80;99.90;;;;;;5061781;28;20169;-76
2021/11/20 13:18:39;;;;;;;14.50;6.22;;;11.70;99.90;;;;;;5058512;28;20169;-76
2021/11/20 13:21:05;;;;;;;7.07;5.00;;;11.70;99.90;;;;;;5060563;28;20204;-76